Pagrindinis puslapis
METAR-TAF:

METAR-TAF

Oro uostai :

Namibė, Angola

platuma: 15-15-40S, ilguma: 12-08-50E, Aukštis: 64 m

METAR: trūkstamas

Laikas: 13:45 (12:45 UTC)

Prognozė

Ataskaita buvo paskelbta 1 valandą ir 45 minutes, ne 11:00 UTC
Prognozė galioja nuo 24 metu 12 UTC su 24 metu 24 UTC
Vėjas 10 kt iš Vakarų/Šiaurės Vakarų
Matomumas 10 km arba daugiau
Mažai debesys ne aukštis 2000 ft
Su prošvaistėmis ne aukštis 3000 ft
Tikimybė 40% :
Laikinai
nuo 24 metu 19 UTC su 24 metu 24 UTC
Vėjas 2 kt nuo kintamojo kryptimis

TAF: FNMO 241100Z 2412/2424 29010KT 9999 FEW020 BKN030 PROB40 TEMPO 2419/2424 VRB02KT

Orai ataskaitas ir orų prognozės (METAR, TAF).

turimą stotys yra geltonos ir raudonos taškus žemėlapyje.

Perkelti pele per norėdami pamatyti stoties vardą.

Tada spustelėkite, norėdami matyti oro stebėjimo ir prognozės.

Norėdami pakeisti žemėlapį: spustelėkite ant žalios mygtukų su juodo kryžiaus žemyn,; žalią mygtuką su brūkšneliu, jei norite nutolinti; arba žalių rodyklių gretimoms žemėlapius.


METAR-TAF: